sensor_id;sensor_type;location;lat;lon;timestamp;P1;durP1;ratioP1;P2;durP2;ratioP2
29120;SDS011;16191;49.548;8.658;2022-08-21T00:00:21;3.53;;;2.30;;
29120;SDS011;16191;49.548;8.658;2022-08-21T00:02:54;5.00;;;2.50;;
29120;SDS011;16191;49.548;8.658;2022-08-21T00:05:25;5.95;;;2.83;;
29120;SDS011;16191;49.548;8.658;2022-08-21T00:07:52;7.03;;;2.50;;
29120;SDS011;16191;49.548;8.658;2022-08-21T00:10:19;5.20;;;2.70;;
29120;SDS011;16191;49.548;8.658;2022-08-21T00:12:46;3.30;;;2.20;;
29120;SDS011;16191;49.548;8.658;2022-08-21T00:15:14;7.90;;;2.80;;
29120;SDS011;16191;49.548;8.658;2022-08-21T00:20:11;5.43;;;2.85;;
29120;SDS011;16191;49.548;8.658;2022-08-21T00:22:40;3.85;;;2.60;;
29120;SDS011;16191;49.548;8.658;2022-08-21T00:25:08;5.13;;;3.08;;
29120;SDS011;16191;49.548;8.658;2022-08-21T00:27:35;5.95;;;2.70;;
29120;SDS011;16191;49.548;8.658;2022-08-21T00:30:03;3.22;;;2.53;;
29120;SDS011;16191;49.548;8.658;2022-08-21T00:32:33;3.30;;;2.80;;
29120;SDS011;16191;49.548;8.658;2022-08-21T00:35:02;4.93;;;2.90;;
29120;SDS011;16191;49.548;8.658;2022-08-21T00:37:30;5.20;;;2.65;;
29120;SDS011;16191;49.548;8.658;2022-08-21T00:40:24;3.97;;;2.80;;
29120;SDS011;16191;49.548;8.658;2022-08-21T00:43:15;6.60;;;2.95;;
29120;SDS011;16191;49.548;8.658;2022-08-21T00:46:04;8.18;;;3.35;;
29120;SDS011;16191;49.548;8.658;2022-08-21T00:48:51;6.07;;;2.88;;
29120;SDS011;16191;49.548;8.658;2022-08-21T00:51:53;5.53;;;3.08;;
29120;SDS011;16191;49.548;8.658;2022-08-21T00:54:44;6.45;;;3.20;;
29120;SDS011;16191;49.548;8.658;2022-08-21T00:57:14;8.93;;;3.72;;
29120;SDS011;16191;49.548;8.658;2022-08-21T00:59:48;3.78;;;2.72;;
29120;SDS011;16191;49.548;8.658;2022-08-21T01:02:17;3.75;;;2.75;;
29120;SDS011;16191;49.548;8.658;2022-08-21T01:04:46;5.35;;;3.03;;
29120;SDS011;16191;49.548;8.658;2022-08-21T01:07:13;5.65;;;3.03;;
29120;SDS011;16191;49.548;8.658;2022-08-21T01:09:40;8.98;;;3.30;;
29120;SDS011;16191;49.548;8.658;2022-08-21T01:12:08;11.45;;;3.17;;
29120;SDS011;16191;49.548;8.658;2022-08-21T01:14:35;5.95;;;3.70;;
29120;SDS011;16191;49.548;8.658;2022-08-21T01:17:02;10.02;;;3.50;;
29120;SDS011;16191;49.548;8.658;2022-08-21T01:19:30;10.63;;;3.53;;
29120;SDS011;16191;49.548;8.658;2022-08-21T01:21:57;5.20;;;2.65;;
29120;SDS011;16191;49.548;8.658;2022-08-21T01:24:25;8.13;;;3.63;;
29120;SDS011;16191;49.548;8.658;2022-08-21T01:26:52;5.40;;;3.70;;
29120;SDS011;16191;49.548;8.658;2022-08-21T01:29:26;5.72;;;3.22;;
29120;SDS011;16191;49.548;8.658;2022-08-21T01:32:10;5.78;;;3.60;;
29120;SDS011;16191;49.548;8.658;2022-08-21T01:34:41;7.28;;;3.50;;
29120;SDS011;16191;49.548;8.658;2022-08-21T01:37:10;4.43;;;3.00;;
29120;SDS011;16191;49.548;8.658;2022-08-21T01:39:37;5.85;;;3.65;;
29120;SDS011;16191;49.548;8.658;2022-08-21T01:42:04;7.85;;;3.25;;
29120;SDS011;16191;49.548;8.658;2022-08-21T01:44:33;7.88;;;3.05;;
29120;SDS011;16191;49.548;8.658;2022-08-21T01:47:01;6.88;;;3.70;;
29120;SDS011;16191;49.548;8.658;2022-08-21T01:49:29;5.72;;;3.40;;
29120;SDS011;16191;49.548;8.658;2022-08-21T01:51:58;8.10;;;4.40;;
29120;SDS011;16191;49.548;8.658;2022-08-21T01:54:25;6.68;;;3.85;;
29120;SDS011;16191;49.548;8.658;2022-08-21T01:56:53;6.65;;;3.28;;
29120;SDS011;16191;49.548;8.658;2022-08-21T01:59:21;6.40;;;3.75;;
29120;SDS011;16191;49.548;8.658;2022-08-21T02:01:49;6.13;;;3.60;;
29120;SDS011;16191;49.548;8.658;2022-08-21T02:04:16;6.88;;;4.30;;
29120;SDS011;16191;49.548;8.658;2022-08-21T02:06:43;6.18;;;4.00;;
29120;SDS011;16191;49.548;8.658;2022-08-21T02:09:10;7.80;;;4.07;;
29120;SDS011;16191;49.548;8.658;2022-08-21T02:11:37;7.82;;;3.97;;
29120;SDS011;16191;49.548;8.658;2022-08-21T02:14:08;6.30;;;4.22;;
29120;SDS011;16191;49.548;8.658;2022-08-21T02:16:35;6.25;;;4.00;;
29120;SDS011;16191;49.548;8.658;2022-08-21T02:19:02;9.35;;;4.13;;
29120;SDS011;16191;49.548;8.658;2022-08-21T02:21:29;7.38;;;4.43;;
29120;SDS011;16191;49.548;8.658;2022-08-21T02:23:56;9.02;;;4.30;;
29120;SDS011;16191;49.548;8.658;2022-08-21T02:26:22;7.00;;;4.38;;
29120;SDS011;16191;49.548;8.658;2022-08-21T02:28:49;7.22;;;4.30;;
29120;SDS011;16191;49.548;8.658;2022-08-21T02:31:15;8.10;;;3.85;;
29120;SDS011;16191;49.548;8.658;2022-08-21T02:33:42;7.20;;;4.28;;
29120;SDS011;16191;49.548;8.658;2022-08-21T02:36:09;9.05;;;4.50;;
29120;SDS011;16191;49.548;8.658;2022-08-21T02:38:37;8.10;;;4.60;;
29120;SDS011;16191;49.548;8.658;2022-08-21T02:41:05;5.53;;;4.10;;
29120;SDS011;16191;49.548;8.658;2022-08-21T02:43:35;13.70;;;5.18;;
29120;SDS011;16191;49.548;8.658;2022-08-21T02:46:03;7.97;;;4.43;;
29120;SDS011;16191;49.548;8.658;2022-08-21T02:48:31;11.50;;;4.47;;
29120;SDS011;16191;49.548;8.658;2022-08-21T02:51:00;6.43;;;4.40;;
29120;SDS011;16191;49.548;8.658;2022-08-21T02:53:30;6.90;;;4.65;;
29120;SDS011;16191;49.548;8.658;2022-08-21T02:55:57;8.18;;;4.10;;
29120;SDS011;16191;49.548;8.658;2022-08-21T02:58:28;6.68;;;4.53;;
29120;SDS011;16191;49.548;8.658;2022-08-21T03:00:57;6.95;;;4.80;;
29120;SDS011;16191;49.548;8.658;2022-08-21T03:03:25;7.50;;;4.75;;
29120;SDS011;16191;49.548;8.658;2022-08-21T03:05:53;6.95;;;4.38;;
29120;SDS011;16191;49.548;8.658;2022-08-21T03:08:21;11.15;;;4.72;;
29120;SDS011;16191;49.548;8.658;2022-08-21T03:10:52;8.93;;;5.32;;
29120;SDS011;16191;49.548;8.658;2022-08-21T03:13:20;6.80;;;4.40;;
29120;SDS011;16191;49.548;8.658;2022-08-21T03:15:48;8.95;;;5.03;;
29120;SDS011;16191;49.548;8.658;2022-08-21T03:18:15;7.60;;;4.05;;
29120;SDS011;16191;49.548;8.658;2022-08-21T03:20:42;9.48;;;4.78;;
29120;SDS011;16191;49.548;8.658;2022-08-21T03:23:11;7.97;;;4.82;;
29120;SDS011;16191;49.548;8.658;2022-08-21T03:25:45;7.68;;;5.15;;
29120;SDS011;16191;49.548;8.658;2022-08-21T03:28:20;7.65;;;5.00;;
29120;SDS011;16191;49.548;8.658;2022-08-21T03:30:48;9.00;;;4.93;;
29120;SDS011;16191;49.548;8.658;2022-08-21T03:33:17;10.23;;;4.63;;
29120;SDS011;16191;49.548;8.658;2022-08-21T03:35:56;9.15;;;5.03;;
29120;SDS011;16191;49.548;8.658;2022-08-21T03:38:27;8.27;;;5.07;;
29120;SDS011;16191;49.548;8.658;2022-08-21T03:40:55;6.35;;;4.68;;
29120;SDS011;16191;49.548;8.658;2022-08-21T03:43:21;9.80;;;4.90;;
29120;SDS011;16191;49.548;8.658;2022-08-21T03:45:48;10.65;;;4.90;;
29120;SDS011;16191;49.548;8.658;2022-08-21T03:48:18;8.20;;;4.63;;
29120;SDS011;16191;49.548;8.658;2022-08-21T03:50:45;8.45;;;4.53;;
29120;SDS011;16191;49.548;8.658;2022-08-21T03:53:16;9.93;;;5.05;;
29120;SDS011;16191;49.548;8.658;2022-08-21T03:55:44;7.70;;;4.90;;
29120;SDS011;16191;49.548;8.658;2022-08-21T03:58:13;11.00;;;5.05;;
29120;SDS011;16191;49.548;8.658;2022-08-21T04:03:10;6.95;;;4.75;;
29120;SDS011;16191;49.548;8.658;2022-08-21T04:05:37;9.77;;;4.70;;
29120;SDS011;16191;49.548;8.658;2022-08-21T04:08:04;7.28;;;4.53;;
29120;SDS011;16191;49.548;8.658;2022-08-21T04:10:33;9.95;;;5.13;;
29120;SDS011;16191;49.548;8.658;2022-08-21T04:13:01;13.55;;;5.28;;
29120;SDS011;16191;49.548;8.658;2022-08-21T04:15:28;9.05;;;4.75;;
29120;SDS011;16191;49.548;8.658;2022-08-21T04:17:55;12.25;;;5.00;;
29120;SDS011;16191;49.548;8.658;2022-08-21T04:20:22;6.53;;;4.70;;
29120;SDS011;16191;49.548;8.658;2022-08-21T04:22:49;12.43;;;5.88;;
29120;SDS011;16191;49.548;8.658;2022-08-21T04:25:20;12.18;;;5.28;;
29120;SDS011;16191;49.548;8.658;2022-08-21T04:27:48;7.13;;;5.15;;
29120;SDS011;16191;49.548;8.658;2022-08-21T04:30:15;9.50;;;4.95;;
29120;SDS011;16191;49.548;8.658;2022-08-21T04:32:45;9.50;;;5.20;;
29120;SDS011;16191;49.548;8.658;2022-08-21T04:35:16;12.68;;;4.50;;
29120;SDS011;16191;49.548;8.658;2022-08-21T04:37:48;13.02;;;4.47;;
29120;SDS011;16191;49.548;8.658;2022-08-21T04:40:15;10.25;;;5.20;;
29120;SDS011;16191;49.548;8.658;2022-08-21T04:42:48;12.95;;;5.00;;
29120;SDS011;16191;49.548;8.658;2022-08-21T04:45:19;9.82;;;4.93;;
29120;SDS011;16191;49.548;8.658;2022-08-21T04:47:51;8.68;;;4.78;;
29120;SDS011;16191;49.548;8.658;2022-08-21T04:50:20;10.10;;;5.07;;
29120;SDS011;16191;49.548;8.658;2022-08-21T04:53:02;12.43;;;4.95;;
29120;SDS011;16191;49.548;8.658;2022-08-21T04:55:31;8.80;;;4.65;;
29120;SDS011;16191;49.548;8.658;2022-08-21T04:57:57;11.20;;;4.90;;
29120;SDS011;16191;49.548;8.658;2022-08-21T05:00:25;16.33;;;5.35;;
29120;SDS011;16191;49.548;8.658;2022-08-21T05:02:52;9.77;;;4.93;;
29120;SDS011;16191;49.548;8.658;2022-08-21T05:05:23;10.65;;;4.75;;
29120;SDS011;16191;49.548;8.658;2022-08-21T05:07:50;8.25;;;4.85;;
29120;SDS011;16191;49.548;8.658;2022-08-21T05:10:19;11.07;;;5.15;;
29120;SDS011;16191;49.548;8.658;2022-08-21T05:12:45;6.95;;;4.68;;
29120;SDS011;16191;49.548;8.658;2022-08-21T05:15:12;13.90;;;5.25;;
29120;SDS011;16191;49.548;8.658;2022-08-21T05:17:40;7.32;;;4.45;;
29120;SDS011;16191;49.548;8.658;2022-08-21T05:20:08;5.40;;;4.00;;
29120;SDS011;16191;49.548;8.658;2022-08-21T05:22:36;11.90;;;4.90;;
29120;SDS011;16191;49.548;8.658;2022-08-21T05:25:03;10.38;;;4.78;;
29120;SDS011;16191;49.548;8.658;2022-08-21T05:27:36;11.45;;;4.60;;
29120;SDS011;16191;49.548;8.658;2022-08-21T05:30:08;9.70;;;4.55;;
29120;SDS011;16191;49.548;8.658;2022-08-21T05:32:35;9.70;;;4.38;;
29120;SDS011;16191;49.548;8.658;2022-08-21T05:35:05;7.75;;;4.80;;
29120;SDS011;16191;49.548;8.658;2022-08-21T05:37:33;9.75;;;5.15;;
29120;SDS011;16191;49.548;8.658;2022-08-21T05:40:01;9.40;;;4.63;;
29120;SDS011;16191;49.548;8.658;2022-08-21T05:42:47;6.75;;;4.63;;
29120;SDS011;16191;49.548;8.658;2022-08-21T05:45:21;10.18;;;4.75;;
29120;SDS011;16191;49.548;8.658;2022-08-21T05:50:43;7.47;;;4.28;;
29120;SDS011;16191;49.548;8.658;2022-08-21T05:53:12;10.68;;;5.45;;
29120;SDS011;16191;49.548;8.658;2022-08-21T05:55:40;9.13;;;4.43;;
29120;SDS011;16191;49.548;8.658;2022-08-21T05:58:12;10.18;;;4.57;;
29120;SDS011;16191;49.548;8.658;2022-08-21T06:00:44;8.10;;;4.47;;
29120;SDS011;16191;49.548;8.658;2022-08-21T06:03:18;8.98;;;4.35;;
29120;SDS011;16191;49.548;8.658;2022-08-21T06:05:47;11.23;;;4.72;;
29120;SDS011;16191;49.548;8.658;2022-08-21T06:08:15;7.55;;;4.30;;
29120;SDS011;16191;49.548;8.658;2022-08-21T06:10:43;11.52;;;4.10;;
29120;SDS011;16191;49.548;8.658;2022-08-21T06:13:11;8.23;;;3.88;;
29120;SDS011;16191;49.548;8.658;2022-08-21T06:15:38;8.05;;;4.32;;
29120;SDS011;16191;49.548;8.658;2022-08-21T06:18:05;12.30;;;4.43;;
29120;SDS011;16191;49.548;8.658;2022-08-21T06:20:32;10.13;;;4.38;;
29120;SDS011;16191;49.548;8.658;2022-08-21T06:22:59;8.60;;;3.92;;
29120;SDS011;16191;49.548;8.658;2022-08-21T06:25:27;10.05;;;4.78;;
29120;SDS011;16191;49.548;8.658;2022-08-21T06:27:59;8.70;;;4.40;;
29120;SDS011;16191;49.548;8.658;2022-08-21T06:30:27;10.18;;;4.50;;
29120;SDS011;16191;49.548;8.658;2022-08-21T06:32:54;10.00;;;4.57;;
29120;SDS011;16191;49.548;8.658;2022-08-21T06:35:20;8.77;;;4.13;;
29120;SDS011;16191;49.548;8.658;2022-08-21T06:37:47;12.55;;;4.20;;
29120;SDS011;16191;49.548;8.658;2022-08-21T06:40:14;9.00;;;4.53;;
29120;SDS011;16191;49.548;8.658;2022-08-21T06:42:43;7.68;;;4.05;;
29120;SDS011;16191;49.548;8.658;2022-08-21T06:45:12;10.23;;;3.80;;
29120;SDS011;16191;49.548;8.658;2022-08-21T06:47:39;9.98;;;4.55;;
29120;SDS011;16191;49.548;8.658;2022-08-21T06:50:06;10.63;;;4.53;;
29120;SDS011;16191;49.548;8.658;2022-08-21T06:52:37;13.88;;;5.15;;
29120;SDS011;16191;49.548;8.658;2022-08-21T06:55:04;12.68;;;4.65;;
29120;SDS011;16191;49.548;8.658;2022-08-21T06:57:33;10.57;;;3.80;;
29120;SDS011;16191;49.548;8.658;2022-08-21T06:59:59;8.45;;;4.40;;
29120;SDS011;16191;49.548;8.658;2022-08-21T07:02:26;11.23;;;3.95;;
29120;SDS011;16191;49.548;8.658;2022-08-21T07:04:53;7.22;;;4.00;;
29120;SDS011;16191;49.548;8.658;2022-08-21T07:07:19;6.03;;;3.65;;
29120;SDS011;16191;49.548;8.658;2022-08-21T07:09:46;12.48;;;4.53;;
29120;SDS011;16191;49.548;8.658;2022-08-21T07:12:12;9.77;;;3.70;;
29120;SDS011;16191;49.548;8.658;2022-08-21T07:14:39;10.25;;;4.07;;
29120;SDS011;16191;49.548;8.658;2022-08-21T07:17:06;7.80;;;4.43;;
29120;SDS011;16191;49.548;8.658;2022-08-21T07:19:32;12.57;;;4.25;;
29120;SDS011;16191;49.548;8.658;2022-08-21T07:21:59;11.45;;;4.07;;
29120;SDS011;16191;49.548;8.658;2022-08-21T07:24:28;10.55;;;4.53;;
29120;SDS011;16191;49.548;8.658;2022-08-21T07:26:55;7.65;;;3.85;;
29120;SDS011;16191;49.548;8.658;2022-08-21T07:29:22;10.13;;;4.07;;
29120;SDS011;16191;49.548;8.658;2022-08-21T07:31:48;8.02;;;3.80;;
29120;SDS011;16191;49.548;8.658;2022-08-21T07:34:15;7.10;;;3.80;;
29120;SDS011;16191;49.548;8.658;2022-08-21T07:36:42;12.27;;;4.05;;
29120;SDS011;16191;49.548;8.658;2022-08-21T07:39:09;8.63;;;4.03;;
29120;SDS011;16191;49.548;8.658;2022-08-21T07:41:35;13.48;;;4.10;;
29120;SDS011;16191;49.548;8.658;2022-08-21T07:44:02;11.00;;;4.20;;
29120;SDS011;16191;49.548;8.658;2022-08-21T07:46:32;10.33;;;4.07;;
29120;SDS011;16191;49.548;8.658;2022-08-21T07:48:58;13.80;;;3.85;;
29120;SDS011;16191;49.548;8.658;2022-08-21T07:51:26;7.85;;;3.90;;
29120;SDS011;16191;49.548;8.658;2022-08-21T07:53:55;10.88;;;3.67;;
29120;SDS011;16191;49.548;8.658;2022-08-21T07:56:22;11.68;;;4.13;;
29120;SDS011;16191;49.548;8.658;2022-08-21T07:58:49;13.32;;;4.43;;
29120;SDS011;16191;49.548;8.658;2022-08-21T08:01:16;11.98;;;4.88;;
29120;SDS011;16191;49.548;8.658;2022-08-21T08:03:43;9.70;;;3.95;;
29120;SDS011;16191;49.548;8.658;2022-08-21T08:06:11;9.77;;;4.20;;
29120;SDS011;16191;49.548;8.658;2022-08-21T08:08:42;14.57;;;4.57;;
29120;SDS011;16191;49.548;8.658;2022-08-21T08:11:09;9.48;;;4.38;;
29120;SDS011;16191;49.548;8.658;2022-08-21T08:13:41;12.48;;;5.03;;
29120;SDS011;16191;49.548;8.658;2022-08-21T08:16:10;10.75;;;4.70;;
29120;SDS011;16191;49.548;8.658;2022-08-21T08:18:36;11.65;;;4.60;;
29120;SDS011;16191;49.548;8.658;2022-08-21T08:21:04;9.63;;;4.70;;
29120;SDS011;16191;49.548;8.658;2022-08-21T08:23:31;11.65;;;4.25;;
29120;SDS011;16191;49.548;8.658;2022-08-21T08:25:58;13.02;;;4.93;;
29120;SDS011;16191;49.548;8.658;2022-08-21T08:28:26;10.82;;;4.45;;
29120;SDS011;16191;49.548;8.658;2022-08-21T08:30:53;10.07;;;4.40;;
29120;SDS011;16191;49.548;8.658;2022-08-21T08:33:19;8.57;;;4.03;;
29120;SDS011;16191;49.548;8.658;2022-08-21T08:35:46;12.05;;;4.25;;
29120;SDS011;16191;49.548;8.658;2022-08-21T08:38:15;9.93;;;3.90;;
29120;SDS011;16191;49.548;8.658;2022-08-21T08:43:29;10.10;;;4.20;;
29120;SDS011;16191;49.548;8.658;2022-08-21T08:45:59;10.88;;;4.47;;
29120;SDS011;16191;49.548;8.658;2022-08-21T08:48:32;9.75;;;4.00;;
29120;SDS011;16191;49.548;8.658;2022-08-21T08:51:06;9.60;;;3.40;;
29120;SDS011;16191;49.548;8.658;2022-08-21T08:53:50;9.20;;;3.83;;
29120;SDS011;16191;49.548;8.658;2022-08-21T08:56:22;9.25;;;4.20;;
29120;SDS011;16191;49.548;8.658;2022-08-21T08:58:54;12.55;;;4.10;;
29120;SDS011;16191;49.548;8.658;2022-08-21T09:01:27;10.55;;;3.97;;
29120;SDS011;16191;49.548;8.658;2022-08-21T09:03:54;9.43;;;4.10;;
29120;SDS011;16191;49.548;8.658;2022-08-21T09:06:37;11.18;;;4.35;;
29120;SDS011;16191;49.548;8.658;2022-08-21T09:12:02;12.85;;;4.63;;
29120;SDS011;16191;49.548;8.658;2022-08-21T09:27:51;9.48;;;4.43;;
29120;SDS011;16191;49.548;8.658;2022-08-21T09:30:19;8.55;;;3.83;;
29120;SDS011;16191;49.548;8.658;2022-08-21T09:32:52;10.65;;;4.15;;
29120;SDS011;16191;49.548;8.658;2022-08-21T09:35:20;10.57;;;3.80;;
29120;SDS011;16191;49.548;8.658;2022-08-21T09:40:41;13.43;;;3.90;;
29120;SDS011;16191;49.548;8.658;2022-08-21T09:45:47;5.75;;;2.83;;
29120;SDS011;16191;49.548;8.658;2022-08-21T09:48:18;9.15;;;3.15;;
29120;SDS011;16191;49.548;8.658;2022-08-21T09:50:47;10.07;;;4.00;;
29120;SDS011;16191;49.548;8.658;2022-08-21T09:53:28;7.72;;;3.25;;
29120;SDS011;16191;49.548;8.658;2022-08-21T09:56:05;10.70;;;3.75;;
29120;SDS011;16191;49.548;8.658;2022-08-21T09:59:00;11.30;;;3.47;;
29120;SDS011;16191;49.548;8.658;2022-08-21T10:01:27;9.38;;;3.00;;
29120;SDS011;16191;49.548;8.658;2022-08-21T10:04:29;6.53;;;3.00;;
29120;SDS011;16191;49.548;8.658;2022-08-21T10:06:48;9.27;;;3.58;;
29120;SDS011;16191;49.548;8.658;2022-08-21T10:09:16;6.93;;;3.13;;
29120;SDS011;16191;49.548;8.658;2022-08-21T10:12:31;7.35;;;3.53;;
29120;SDS011;16191;49.548;8.658;2022-08-21T10:17:21;9.45;;;3.25;;
29120;SDS011;16191;49.548;8.658;2022-08-21T10:22:34;7.10;;;2.85;;
29120;SDS011;16191;49.548;8.658;2022-08-21T10:28:24;7.80;;;3.05;;
29120;SDS011;16191;49.548;8.658;2022-08-21T10:34:24;9.75;;;3.10;;
29120;SDS011;16191;49.548;8.658;2022-08-21T10:37:18;9.05;;;3.30;;
29120;SDS011;16191;49.548;8.658;2022-08-21T10:45:42;9.02;;;3.03;;
29120;SDS011;16191;49.548;8.658;2022-08-21T10:48:28;6.00;;;2.97;;
29120;SDS011;16191;49.548;8.658;2022-08-21T10:54:20;10.50;;;3.15;;
29120;SDS011;16191;49.548;8.658;2022-08-21T10:57:15;9.98;;;2.80;;
29120;SDS011;16191;49.548;8.658;2022-08-21T11:00:05;11.82;;;3.10;;
29120;SDS011;16191;49.548;8.658;2022-08-21T11:02:43;10.02;;;2.70;;
29120;SDS011;16191;49.548;8.658;2022-08-21T11:07:48;7.10;;;2.70;;
29120;SDS011;16191;49.548;8.658;2022-08-21T11:10:23;7.80;;;2.88;;
29120;SDS011;16191;49.548;8.658;2022-08-21T11:13:00;10.43;;;3.13;;
29120;SDS011;16191;49.548;8.658;2022-08-21T11:15:43;9.57;;;2.90;;
29120;SDS011;16191;49.548;8.658;2022-08-21T11:23:54;10.70;;;3.22;;
29120;SDS011;16191;49.548;8.658;2022-08-21T11:29:29;7.45;;;2.80;;
29120;SDS011;16191;49.548;8.658;2022-08-21T11:46:50;9.68;;;2.75;;
29120;SDS011;16191;49.548;8.658;2022-08-21T11:49:33;10.88;;;2.70;;
29120;SDS011;16191;49.548;8.658;2022-08-21T11:55:07;9.10;;;2.45;;
29120;SDS011;16191;49.548;8.658;2022-08-21T11:57:59;4.47;;;2.20;;
29120;SDS011;16191;49.548;8.658;2022-08-21T12:00:36;7.03;;;2.50;;
29120;SDS011;16191;49.548;8.658;2022-08-21T12:03:09;7.22;;;2.47;;
29120;SDS011;16191;49.548;8.658;2022-08-21T12:05:40;11.23;;;2.00;;
29120;SDS011;16191;49.548;8.658;2022-08-21T12:08:15;5.88;;;1.83;;
29120;SDS011;16191;49.548;8.658;2022-08-21T12:11:02;4.35;;;1.88;;
29120;SDS011;16191;49.548;8.658;2022-08-21T12:16:31;4.53;;;1.98;;
29120;SDS011;16191;49.548;8.658;2022-08-21T12:19:13;7.38;;;2.05;;
29120;SDS011;16191;49.548;8.658;2022-08-21T12:26:55;6.35;;;2.25;;
29120;SDS011;16191;49.548;8.658;2022-08-21T12:29:32;3.70;;;2.00;;
29120;SDS011;16191;49.548;8.658;2022-08-21T12:32:03;5.55;;;2.13;;
29120;SDS011;16191;49.548;8.658;2022-08-21T12:37:59;5.88;;;2.05;;
29120;SDS011;16191;49.548;8.658;2022-08-21T12:40:40;5.72;;;2.20;;
29120;SDS011;16191;49.548;8.658;2022-08-21T12:43:19;5.50;;;2.10;;
29120;SDS011;16191;49.548;8.658;2022-08-21T12:45:59;5.90;;;2.22;;
29120;SDS011;16191;49.548;8.658;2022-08-21T12:48:29;6.10;;;2.00;;
29120;SDS011;16191;49.548;8.658;2022-08-21T12:51:13;4.57;;;2.00;;
29120;SDS011;16191;49.548;8.658;2022-08-21T12:53:50;6.32;;;2.40;;
29120;SDS011;16191;49.548;8.658;2022-08-21T12:56:18;4.70;;;2.30;;
29120;SDS011;16191;49.548;8.658;2022-08-21T13:01:17;8.18;;;2.60;;
29120;SDS011;16191;49.548;8.658;2022-08-21T13:03:52;4.35;;;2.35;;
29120;SDS011;16191;49.548;8.658;2022-08-21T13:06:32;6.63;;;2.40;;
29120;SDS011;16191;49.548;8.658;2022-08-21T13:09:04;7.93;;;1.98;;
29120;SDS011;16191;49.548;8.658;2022-08-21T13:11:33;6.72;;;2.33;;
29120;SDS011;16191;49.548;8.658;2022-08-21T13:14:01;6.63;;;2.50;;
29120;SDS011;16191;49.548;8.658;2022-08-21T13:16:31;5.18;;;2.33;;
29120;SDS011;16191;49.548;8.658;2022-08-21T13:19:02;5.63;;;2.20;;
29120;SDS011;16191;49.548;8.658;2022-08-21T13:21:41;4.85;;;2.25;;
29120;SDS011;16191;49.548;8.658;2022-08-21T13:24:15;4.68;;;2.30;;
29120;SDS011;16191;49.548;8.658;2022-08-21T13:27:14;5.55;;;2.30;;
29120;SDS011;16191;49.548;8.658;2022-08-21T13:29:44;8.05;;;2.50;;
29120;SDS011;16191;49.548;8.658;2022-08-21T13:32:21;4.50;;;2.35;;
29120;SDS011;16191;49.548;8.658;2022-08-21T13:34:52;7.85;;;2.75;;
29120;SDS011;16191;49.548;8.658;2022-08-21T13:37:19;8.82;;;2.25;;
29120;SDS011;16191;49.548;8.658;2022-08-21T13:39:49;6.07;;;2.22;;
29120;SDS011;16191;49.548;8.658;2022-08-21T13:42:18;5.53;;;2.10;;
29120;SDS011;16191;49.548;8.658;2022-08-21T13:44:46;8.82;;;2.45;;
29120;SDS011;16191;49.548;8.658;2022-08-21T13:47:14;9.00;;;2.60;;
29120;SDS011;16191;49.548;8.658;2022-08-21T13:49:43;4.33;;;2.10;;
29120;SDS011;16191;49.548;8.658;2022-08-21T13:52:23;3.40;;;1.90;;
29120;SDS011;16191;49.548;8.658;2022-08-21T13:55:12;5.22;;;2.42;;
29120;SDS011;16191;49.548;8.658;2022-08-21T13:57:39;4.82;;;2.38;;
29120;SDS011;16191;49.548;8.658;2022-08-21T14:00:20;7.45;;;2.30;;
29120;SDS011;16191;49.548;8.658;2022-08-21T14:02:52;4.13;;;2.30;;
29120;SDS011;16191;49.548;8.658;2022-08-21T14:05:26;4.95;;;2.63;;
29120;SDS011;16191;49.548;8.658;2022-08-21T14:08:03;5.88;;;2.20;;
29120;SDS011;16191;49.548;8.658;2022-08-21T14:10:45;4.78;;;2.20;;
29120;SDS011;16191;49.548;8.658;2022-08-21T14:16:23;5.90;;;2.42;;
29120;SDS011;16191;49.548;8.658;2022-08-21T14:19:39;6.95;;;2.22;;
29120;SDS011;16191;49.548;8.658;2022-08-21T14:21:45;4.35;;;2.38;;
29120;SDS011;16191;49.548;8.658;2022-08-21T14:24:13;7.13;;;2.38;;
29120;SDS011;16191;49.548;8.658;2022-08-21T14:26:58;6.77;;;2.63;;
29120;SDS011;16191;49.548;8.658;2022-08-21T14:29:34;6.82;;;2.33;;
29120;SDS011;16191;49.548;8.658;2022-08-21T14:32:13;5.85;;;2.30;;
29120;SDS011;16191;49.548;8.658;2022-08-21T14:34:51;10.90;;;2.47;;
29120;SDS011;16191;49.548;8.658;2022-08-21T14:37:20;6.97;;;2.50;;
29120;SDS011;16191;49.548;8.658;2022-08-21T14:39:47;4.72;;;2.05;;
29120;SDS011;16191;49.548;8.658;2022-08-21T14:42:13;9.02;;;2.70;;
29120;SDS011;16191;49.548;8.658;2022-08-21T14:44:40;8.50;;;2.40;;
29120;SDS011;16191;49.548;8.658;2022-08-21T14:47:08;5.70;;;2.60;;
29120;SDS011;16191;49.548;8.658;2022-08-21T14:49:35;6.22;;;2.78;;
29120;SDS011;16191;49.548;8.658;2022-08-21T14:52:02;6.75;;;2.22;;
29120;SDS011;16191;49.548;8.658;2022-08-21T14:54:29;7.35;;;2.28;;
29120;SDS011;16191;49.548;8.658;2022-08-21T14:56:58;5.30;;;2.47;;
29120;SDS011;16191;49.548;8.658;2022-08-21T14:59:36;8.80;;;2.63;;
29120;SDS011;16191;49.548;8.658;2022-08-21T15:02:04;8.77;;;2.60;;
29120;SDS011;16191;49.548;8.658;2022-08-21T15:04:33;9.38;;;2.38;;
29120;SDS011;16191;49.548;8.658;2022-08-21T15:07:00;5.57;;;2.10;;
29120;SDS011;16191;49.548;8.658;2022-08-21T15:09:27;4.50;;;1.75;;
29120;SDS011;16191;49.548;8.658;2022-08-21T15:11:55;5.10;;;2.13;;
29120;SDS011;16191;49.548;8.658;2022-08-21T15:14:24;6.35;;;2.30;;
29120;SDS011;16191;49.548;8.658;2022-08-21T15:19:19;10.48;;;2.40;;
29120;SDS011;16191;49.548;8.658;2022-08-21T15:21:46;4.72;;;2.00;;
29120;SDS011;16191;49.548;8.658;2022-08-21T15:24:12;5.03;;;2.20;;
29120;SDS011;16191;49.548;8.658;2022-08-21T15:26:39;9.52;;;2.47;;
29120;SDS011;16191;49.548;8.658;2022-08-21T15:29:07;5.40;;;2.30;;
29120;SDS011;16191;49.548;8.658;2022-08-21T15:31:34;4.95;;;2.10;;
29120;SDS011;16191;49.548;8.658;2022-08-21T15:34:02;5.07;;;2.33;;
29120;SDS011;16191;49.548;8.658;2022-08-21T15:36:28;5.28;;;2.33;;
29120;SDS011;16191;49.548;8.658;2022-08-21T15:38:55;6.65;;;2.03;;
29120;SDS011;16191;49.548;8.658;2022-08-21T15:41:21;6.35;;;2.33;;
29120;SDS011;16191;49.548;8.658;2022-08-21T15:43:49;6.57;;;2.22;;
29120;SDS011;16191;49.548;8.658;2022-08-21T15:48:45;5.07;;;2.25;;
29120;SDS011;16191;49.548;8.658;2022-08-21T15:51:12;5.82;;;2.22;;
29120;SDS011;16191;49.548;8.658;2022-08-21T15:53:40;7.10;;;2.22;;
29120;SDS011;16191;49.548;8.658;2022-08-21T15:56:14;3.78;;;2.03;;
29120;SDS011;16191;49.548;8.658;2022-08-21T15:58:48;4.70;;;2.17;;
29120;SDS011;16191;49.548;8.658;2022-08-21T16:01:16;6.30;;;1.92;;
29120;SDS011;16191;49.548;8.658;2022-08-21T16:03:43;7.85;;;2.17;;
29120;SDS011;16191;49.548;8.658;2022-08-21T16:06:15;5.82;;;2.03;;
29120;SDS011;16191;49.548;8.658;2022-08-21T16:08:41;10.35;;;2.17;;
29120;SDS011;16191;49.548;8.658;2022-08-21T16:11:08;13.13;;;2.22;;
29120;SDS011;16191;49.548;8.658;2022-08-21T16:13:41;6.60;;;2.17;;
29120;SDS011;16191;49.548;8.658;2022-08-21T16:16:10;8.27;;;2.20;;
29120;SDS011;16191;49.548;8.658;2022-08-21T16:18:38;4.93;;;2.37;;
29120;SDS011;16191;49.548;8.658;2022-08-21T16:21:06;5.28;;;2.28;;
29120;SDS011;16191;49.548;8.658;2022-08-21T16:23:33;10.52;;;2.10;;
29120;SDS011;16191;49.548;8.658;2022-08-21T16:26:04;4.70;;;2.20;;
29120;SDS011;16191;49.548;8.658;2022-08-21T16:28:35;4.78;;;3.35;;
29120;SDS011;16191;49.548;8.658;2022-08-21T16:31:04;19.50;;;12.98;;
29120;SDS011;16191;49.548;8.658;2022-08-21T16:33:34;7.72;;;2.13;;
29120;SDS011;16191;49.548;8.658;2022-08-21T16:36:06;6.93;;;3.10;;
29120;SDS011;16191;49.548;8.658;2022-08-21T16:38:34;8.52;;;2.80;;
29120;SDS011;16191;49.548;8.658;2022-08-21T16:43:34;7.57;;;2.60;;
29120;SDS011;16191;49.548;8.658;2022-08-21T16:46:01;3.45;;;1.88;;
29120;SDS011;16191;49.548;8.658;2022-08-21T16:48:28;6.28;;;2.10;;
29120;SDS011;16191;49.548;8.658;2022-08-21T16:50:55;7.88;;;2.60;;